sensor_id;sensor_type;location;lat;lon;timestamp;temperature;humidity
52731;DHT22;38624;53.242;6.974;2023-09-18T00:10:26;16.00;99.90
52731;DHT22;38624;53.242;6.974;2023-09-18T00:12:56;15.90;99.90
52731;DHT22;38624;53.242;6.974;2023-09-18T00:15:22;15.90;99.90
52731;DHT22;38624;53.242;6.974;2023-09-18T00:17:48;15.90;99.90
52731;DHT22;38624;53.242;6.974;2023-09-18T00:20:14;15.80;99.90
52731;DHT22;38624;53.242;6.974;2023-09-18T00:22:42;15.80;99.90
52731;DHT22;38624;53.242;6.974;2023-09-18T00:25:07;15.80;99.90
52731;DHT22;38624;53.242;6.974;2023-09-18T00:27:33;15.80;99.90
52731;DHT22;38624;53.242;6.974;2023-09-18T00:30:04;15.70;99.90
52731;DHT22;38624;53.242;6.974;2023-09-18T00:32:40;15.70;99.90
52731;DHT22;38624;53.242;6.974;2023-09-18T00:35:25;15.70;99.90
52731;DHT22;38624;53.242;6.974;2023-09-18T00:37:53;15.70;99.90
52731;DHT22;38624;53.242;6.974;2023-09-18T00:40:21;15.80;99.90
52731;DHT22;38624;53.242;6.974;2023-09-18T00:45:48;15.90;99.90
52731;DHT22;38624;53.242;6.974;2023-09-18T00:48:15;15.10;99.90
52731;DHT22;38624;53.242;6.974;2023-09-18T00:50:43;15.90;99.90
52731;DHT22;38624;53.242;6.974;2023-09-18T00:53:18;16.00;99.90
52731;DHT22;38624;53.242;6.974;2023-09-18T00:55:45;15.90;99.90
52731;DHT22;38624;53.242;6.974;2023-09-18T00:58:12;15.90;99.90
52731;DHT22;38624;53.242;6.974;2023-09-18T01:00:39;15.90;99.90
52731;DHT22;38624;53.242;6.974;2023-09-18T01:03:06;15.90;99.90
52731;DHT22;38624;53.242;6.974;2023-09-18T01:05:33;15.90;99.90
52731;DHT22;38624;53.242;6.974;2023-09-18T01:08:02;15.80;99.90
52731;DHT22;38624;53.242;6.974;2023-09-18T01:10:34;15.80;99.90
52731;DHT22;38624;53.242;6.974;2023-09-18T01:13:11;15.80;99.90
52731;DHT22;38624;53.242;6.974;2023-09-18T01:15:59;15.70;99.90
52731;DHT22;38624;53.242;6.974;2023-09-18T01:18:28;15.80;99.90
52731;DHT22;38624;53.242;6.974;2023-09-18T01:20:53;15.70;99.90
52731;DHT22;38624;53.242;6.974;2023-09-18T01:23:19;15.70;99.90
52731;DHT22;38624;53.242;6.974;2023-09-18T01:25:47;15.60;99.90
52731;DHT22;38624;53.242;6.974;2023-09-18T01:28:15;15.60;99.90
52731;DHT22;38624;53.242;6.974;2023-09-18T01:30:42;15.60;99.90
52731;DHT22;38624;53.242;6.974;2023-09-18T01:33:09;15.60;99.90
52731;DHT22;38624;53.242;6.974;2023-09-18T01:35:41;15.60;99.90
52731;DHT22;38624;53.242;6.974;2023-09-18T01:38:07;15.50;99.90
52731;DHT22;38624;53.242;6.974;2023-09-18T01:40:38;15.50;99.90
52731;DHT22;38624;53.242;6.974;2023-09-18T01:43:05;15.50;99.90
52731;DHT22;38624;53.242;6.974;2023-09-18T01:45:33;15.50;99.90
52731;DHT22;38624;53.242;6.974;2023-09-18T01:47:59;15.50;99.90
52731;DHT22;38624;53.242;6.974;2023-09-18T01:50:25;15.60;99.90
52731;DHT22;38624;53.242;6.974;2023-09-18T01:52:50;15.60;99.90
52731;DHT22;38624;53.242;6.974;2023-09-18T01:55:19;15.50;99.90
52731;DHT22;38624;53.242;6.974;2023-09-18T01:57:45;15.20;99.90
52731;DHT22;38624;53.242;6.974;2023-09-18T02:00:11;15.50;99.90
52731;DHT22;38624;53.242;6.974;2023-09-18T02:02:37;15.50;99.90
52731;DHT22;38624;53.242;6.974;2023-09-18T02:05:03;15.40;99.90
52731;DHT22;38624;53.242;6.974;2023-09-18T02:07:29;15.40;99.90
52731;DHT22;38624;53.242;6.974;2023-09-18T02:09:57;15.40;99.90
52731;DHT22;38624;53.242;6.974;2023-09-18T02:12:23;15.40;99.90
52731;DHT22;38624;53.242;6.974;2023-09-18T02:14:49;15.30;99.90
52731;DHT22;38624;53.242;6.974;2023-09-18T02:17:16;15.30;99.90
52731;DHT22;38624;53.242;6.974;2023-09-18T02:19:43;15.30;99.90
52731;DHT22;38624;53.242;6.974;2023-09-18T02:22:08;15.30;99.90
52731;DHT22;38624;53.242;6.974;2023-09-18T02:24:34;15.40;99.90
52731;DHT22;38624;53.242;6.974;2023-09-18T02:29:28;15.50;99.90
52731;DHT22;38624;53.242;6.974;2023-09-18T02:31:54;15.50;99.90
52731;DHT22;38624;53.242;6.974;2023-09-18T02:34:22;15.50;99.90
52731;DHT22;38624;53.242;6.974;2023-09-18T02:36:48;15.50;99.90
52731;DHT22;38624;53.242;6.974;2023-09-18T02:39:14;15.60;99.90
52731;DHT22;38624;53.242;6.974;2023-09-18T02:41:39;15.50;99.90
52731;DHT22;38624;53.242;6.974;2023-09-18T02:44:05;15.50;99.90
52731;DHT22;38624;53.242;6.974;2023-09-18T02:46:41;15.50;99.90
52731;DHT22;38624;53.242;6.974;2023-09-18T02:49:07;15.50;99.90
52731;DHT22;38624;53.242;6.974;2023-09-18T02:51:33;15.50;99.90
52731;DHT22;38624;53.242;6.974;2023-09-18T02:53:59;15.50;99.90
52731;DHT22;38624;53.242;6.974;2023-09-18T02:56:25;14.60;99.90
52731;DHT22;38624;53.242;6.974;2023-09-18T02:58:50;15.60;99.90
52731;DHT22;38624;53.242;6.974;2023-09-18T03:01:19;15.60;99.90
52731;DHT22;38624;53.242;6.974;2023-09-18T03:03:44;15.60;99.90
52731;DHT22;38624;53.242;6.974;2023-09-18T03:06:12;15.60;99.90
52731;DHT22;38624;53.242;6.974;2023-09-18T03:08:38;15.60;99.90
52731;DHT22;38624;53.242;6.974;2023-09-18T03:11:11;15.60;99.90
52731;DHT22;38624;53.242;6.974;2023-09-18T03:13:45;15.60;99.90
52731;DHT22;38624;53.242;6.974;2023-09-18T03:16:12;15.60;99.90
52731;DHT22;38624;53.242;6.974;2023-09-18T03:18:40;15.60;99.90
52731;DHT22;38624;53.242;6.974;2023-09-18T03:21:06;15.40;99.90
52731;DHT22;38624;53.242;6.974;2023-09-18T03:23:32;15.60;99.90
52731;DHT22;38624;53.242;6.974;2023-09-18T03:25:57;15.70;99.90
52731;DHT22;38624;53.242;6.974;2023-09-18T03:28:25;14.90;99.90
52731;DHT22;38624;53.242;6.974;2023-09-18T03:30:50;15.70;99.90
52731;DHT22;38624;53.242;6.974;2023-09-18T03:33:19;15.70;99.90
52731;DHT22;38624;53.242;6.974;2023-09-18T03:35:49;15.70;99.90
52731;DHT22;38624;53.242;6.974;2023-09-18T03:38:22;15.60;99.90
52731;DHT22;38624;53.242;6.974;2023-09-18T03:40:50;15.60;99.90
52731;DHT22;38624;53.242;6.974;2023-09-18T03:43:16;15.60;99.90
52731;DHT22;38624;53.242;6.974;2023-09-18T03:45:42;15.60;99.90
52731;DHT22;38624;53.242;6.974;2023-09-18T03:48:11;15.50;99.90
52731;DHT22;38624;53.242;6.974;2023-09-18T03:50:37;15.50;99.90
52731;DHT22;38624;53.242;6.974;2023-09-18T03:53:04;15.60;99.90
52731;DHT22;38624;53.242;6.974;2023-09-18T03:55:32;15.60;99.90
52731;DHT22;38624;53.242;6.974;2023-09-18T03:58:00;15.10;99.90
52731;DHT22;38624;53.242;6.974;2023-09-18T04:00:29;15.50;99.90
52731;DHT22;38624;53.242;6.974;2023-09-18T04:02:54;15.60;99.90
52731;DHT22;38624;53.242;6.974;2023-09-18T04:05:23;15.60;99.90
52731;DHT22;38624;53.242;6.974;2023-09-18T04:07:48;15.50;99.90
52731;DHT22;38624;53.242;6.974;2023-09-18T04:10:19;15.50;99.90
52731;DHT22;38624;53.242;6.974;2023-09-18T04:12:49;15.50;99.90
52731;DHT22;38624;53.242;6.974;2023-09-18T04:15:16;15.50;99.90
52731;DHT22;38624;53.242;6.974;2023-09-18T04:17:44;15.50;99.90
52731;DHT22;38624;53.242;6.974;2023-09-18T04:20:10;15.50;99.90
52731;DHT22;38624;53.242;6.974;2023-09-18T04:22:43;15.50;99.90
52731;DHT22;38624;53.242;6.974;2023-09-18T04:25:10;15.50;99.90
52731;DHT22;38624;53.242;6.974;2023-09-18T04:27:36;15.50;99.90
52731;DHT22;38624;53.242;6.974;2023-09-18T04:30:02;15.50;99.90
52731;DHT22;38624;53.242;6.974;2023-09-18T04:32:28;15.60;99.90
52731;DHT22;38624;53.242;6.974;2023-09-18T04:35:02;15.70;99.90
52731;DHT22;38624;53.242;6.974;2023-09-18T04:37:30;15.60;99.90
52731;DHT22;38624;53.242;6.974;2023-09-18T04:39:57;16.00;99.90
52731;DHT22;38624;53.242;6.974;2023-09-18T04:42:25;15.70;99.90
52731;DHT22;38624;53.242;6.974;2023-09-18T04:44:54;15.70;99.90
52731;DHT22;38624;53.242;6.974;2023-09-18T04:47:20;15.80;99.90
52731;DHT22;38624;53.242;6.974;2023-09-18T04:49:50;15.80;99.90
52731;DHT22;38624;53.242;6.974;2023-09-18T04:52:16;15.70;99.90
52731;DHT22;38624;53.242;6.974;2023-09-18T04:54:45;15.80;99.90
52731;DHT22;38624;53.242;6.974;2023-09-18T04:59:36;15.90;99.90
52731;DHT22;38624;53.242;6.974;2023-09-18T05:02:07;15.90;99.90
52731;DHT22;38624;53.242;6.974;2023-09-18T05:04:33;15.90;99.90
52731;DHT22;38624;53.242;6.974;2023-09-18T05:06:58;15.90;99.90
52731;DHT22;38624;53.242;6.974;2023-09-18T05:09:27;16.00;99.90
52731;DHT22;38624;53.242;6.974;2023-09-18T05:11:52;16.00;99.90
52731;DHT22;38624;53.242;6.974;2023-09-18T05:14:21;16.10;99.90
52731;DHT22;38624;53.242;6.974;2023-09-18T05:16:46;16.10;99.90
52731;DHT22;38624;53.242;6.974;2023-09-18T05:19:12;16.10;99.90
52731;DHT22;38624;53.242;6.974;2023-09-18T05:21:38;16.10;99.90
52731;DHT22;38624;53.242;6.974;2023-09-18T05:24:04;16.20;99.90
52731;DHT22;38624;53.242;6.974;2023-09-18T05:26:30;16.20;99.90
52731;DHT22;38624;53.242;6.974;2023-09-18T05:28:56;16.30;99.90
52731;DHT22;38624;53.242;6.974;2023-09-18T05:31:22;16.30;99.90
52731;DHT22;38624;53.242;6.974;2023-09-18T05:33:49;16.40;99.90
52731;DHT22;38624;53.242;6.974;2023-09-18T05:36:15;16.40;99.90
52731;DHT22;38624;53.242;6.974;2023-09-18T05:38:41;16.40;99.90
52731;DHT22;38624;53.242;6.974;2023-09-18T05:41:08;16.50;99.90
52731;DHT22;38624;53.242;6.974;2023-09-18T05:43:35;16.50;99.90
52731;DHT22;38624;53.242;6.974;2023-09-18T05:46:02;16.50;99.90
52731;DHT22;38624;53.242;6.974;2023-09-18T05:48:28;16.50;99.90
52731;DHT22;38624;53.242;6.974;2023-09-18T05:50:56;16.90;99.90
52731;DHT22;38624;53.242;6.974;2023-09-18T05:53:22;16.60;99.90
52731;DHT22;38624;53.242;6.974;2023-09-18T05:55:50;16.60;99.90
52731;DHT22;38624;53.242;6.974;2023-09-18T05:58:16;16.70;99.90
52731;DHT22;38624;53.242;6.974;2023-09-18T06:00:45;16.70;99.90
52731;DHT22;38624;53.242;6.974;2023-09-18T06:03:11;16.70;99.90
52731;DHT22;38624;53.242;6.974;2023-09-18T06:05:37;16.70;99.90
52731;DHT22;38624;53.242;6.974;2023-09-18T06:08:03;16.00;99.90
52731;DHT22;38624;53.242;6.974;2023-09-18T06:10:29;16.80;99.90
52731;DHT22;38624;53.242;6.974;2023-09-18T06:12:55;16.90;99.90
52731;DHT22;38624;53.242;6.974;2023-09-18T06:15:21;16.90;99.90
52731;DHT22;38624;53.242;6.974;2023-09-18T06:17:47;17.00;99.90
52731;DHT22;38624;53.242;6.974;2023-09-18T06:20:13;17.10;99.90
52731;DHT22;38624;53.242;6.974;2023-09-18T06:22:39;17.10;99.90
52731;DHT22;38624;53.242;6.974;2023-09-18T06:25:06;17.20;99.90
52731;DHT22;38624;53.242;6.974;2023-09-18T06:27:39;17.20;99.90
52731;DHT22;38624;53.242;6.974;2023-09-18T06:30:06;17.30;99.90
52731;DHT22;38624;53.242;6.974;2023-09-18T06:32:32;17.30;99.90
52731;DHT22;38624;53.242;6.974;2023-09-18T06:34:58;17.40;99.90
52731;DHT22;38624;53.242;6.974;2023-09-18T06:37:24;17.50;99.90
52731;DHT22;38624;53.242;6.974;2023-09-18T06:39:50;17.40;99.90
52731;DHT22;38624;53.242;6.974;2023-09-18T06:44:43;17.50;99.90
52731;DHT22;38624;53.242;6.974;2023-09-18T06:47:08;17.50;99.90
52731;DHT22;38624;53.242;6.974;2023-09-18T06:49:34;17.60;99.90
52731;DHT22;38624;53.242;6.974;2023-09-18T06:52:03;17.60;99.90
52731;DHT22;38624;53.242;6.974;2023-09-18T06:54:33;17.60;99.90
52731;DHT22;38624;53.242;6.974;2023-09-18T06:57:01;17.60;99.90
52731;DHT22;38624;53.242;6.974;2023-09-18T06:59:30;17.70;99.90
52731;DHT22;38624;53.242;6.974;2023-09-18T07:01:55;17.70;99.90
52731;DHT22;38624;53.242;6.974;2023-09-18T07:04:26;17.70;99.90
52731;DHT22;38624;53.242;6.974;2023-09-18T07:06:54;17.70;99.90
52731;DHT22;38624;53.242;6.974;2023-09-18T07:09:20;17.70;99.90
52731;DHT22;38624;53.242;6.974;2023-09-18T07:11:48;17.70;99.90
52731;DHT22;38624;53.242;6.974;2023-09-18T07:14:15;18.60;99.90
52731;DHT22;38624;53.242;6.974;2023-09-18T07:16:43;17.80;99.90
52731;DHT22;38624;53.242;6.974;2023-09-18T07:19:11;17.80;99.90
52731;DHT22;38624;53.242;6.974;2023-09-18T07:21:42;17.80;99.90
52731;DHT22;38624;53.242;6.974;2023-09-18T07:24:07;17.80;99.90
52731;DHT22;38624;53.242;6.974;2023-09-18T07:26:35;17.80;99.90
52731;DHT22;38624;53.242;6.974;2023-09-18T07:29:01;17.80;99.90
52731;DHT22;38624;53.242;6.974;2023-09-18T07:31:27;17.00;99.90
52731;DHT22;38624;53.242;6.974;2023-09-18T07:33:57;17.20;99.90
52731;DHT22;38624;53.242;6.974;2023-09-18T07:36:23;17.90;99.90
52731;DHT22;38624;53.242;6.974;2023-09-18T07:38:51;17.80;99.90
52731;DHT22;38624;53.242;6.974;2023-09-18T07:41:17;17.80;99.90
52731;DHT22;38624;53.242;6.974;2023-09-18T07:43:46;17.80;99.90
52731;DHT22;38624;53.242;6.974;2023-09-18T07:46:13;17.80;99.90
52731;DHT22;38624;53.242;6.974;2023-09-18T07:48:42;17.80;99.90
52731;DHT22;38624;53.242;6.974;2023-09-18T07:51:12;17.70;99.90
52731;DHT22;38624;53.242;6.974;2023-09-18T07:53:39;17.80;99.90
52731;DHT22;38624;53.242;6.974;2023-09-18T07:56:04;17.90;99.90
52731;DHT22;38624;53.242;6.974;2023-09-18T07:58:33;17.80;99.90
52731;DHT22;38624;53.242;6.974;2023-09-18T08:00:59;17.80;99.90
52731;DHT22;38624;53.242;6.974;2023-09-18T08:03:28;17.80;99.90
52731;DHT22;38624;53.242;6.974;2023-09-18T08:05:54;17.80;99.90
52731;DHT22;38624;53.242;6.974;2023-09-18T08:08:23;17.80;99.90
52731;DHT22;38624;53.242;6.974;2023-09-18T08:10:52;17.90;99.90
52731;DHT22;38624;53.242;6.974;2023-09-18T08:13:18;17.90;99.90
52731;DHT22;38624;53.242;6.974;2023-09-18T08:15:47;18.00;99.90
52731;DHT22;38624;53.242;6.974;2023-09-18T08:18:13;18.00;99.90
52731;DHT22;38624;53.242;6.974;2023-09-18T08:20:43;18.10;99.90
52731;DHT22;38624;53.242;6.974;2023-09-18T08:23:12;18.10;99.90
52731;DHT22;38624;53.242;6.974;2023-09-18T08:25:38;18.00;99.90
52731;DHT22;38624;53.242;6.974;2023-09-18T08:28:06;18.00;99.90
52731;DHT22;38624;53.242;6.974;2023-09-18T08:30:37;18.10;99.90
52731;DHT22;38624;53.242;6.974;2023-09-18T08:33:05;18.10;99.90
52731;DHT22;38624;53.242;6.974;2023-09-18T08:35:33;18.20;99.90
52731;DHT22;38624;53.242;6.974;2023-09-18T08:38:01;18.30;99.90
52731;DHT22;38624;53.242;6.974;2023-09-18T08:40:28;18.30;99.90
52731;DHT22;38624;53.242;6.974;2023-09-18T08:42:55;18.30;99.90
52731;DHT22;38624;53.242;6.974;2023-09-18T08:45:28;18.30;99.90
52731;DHT22;38624;53.242;6.974;2023-09-18T08:47:57;18.30;99.90
52731;DHT22;38624;53.242;6.974;2023-09-18T08:50:28;18.30;99.90
52731;DHT22;38624;53.242;6.974;2023-09-18T08:52:57;18.50;99.90
52731;DHT22;38624;53.242;6.974;2023-09-18T08:55:24;18.20;99.90
52731;DHT22;38624;53.242;6.974;2023-09-18T08:57:50;18.20;99.90
52731;DHT22;38624;53.242;6.974;2023-09-18T09:00:17;18.20;99.90
52731;DHT22;38624;53.242;6.974;2023-09-18T09:02:44;18.10;99.90
52731;DHT22;38624;53.242;6.974;2023-09-18T09:05:10;18.10;99.90
52731;DHT22;38624;53.242;6.974;2023-09-18T09:07:36;18.10;99.90
52731;DHT22;38624;53.242;6.974;2023-09-18T09:10:04;18.10;99.90
52731;DHT22;38624;53.242;6.974;2023-09-18T09:15:20;18.20;99.90
52731;DHT22;38624;53.242;6.974;2023-09-18T09:17:46;18.20;99.90
52731;DHT22;38624;53.242;6.974;2023-09-18T09:20:13;18.20;99.90
52731;DHT22;38624;53.242;6.974;2023-09-18T09:22:40;18.30;99.90
52731;DHT22;38624;53.242;6.974;2023-09-18T09:25:23;18.40;99.90
52731;DHT22;38624;53.242;6.974;2023-09-18T09:27:52;18.50;99.90
52731;DHT22;38624;53.242;6.974;2023-09-18T09:30:23;18.50;99.90
52731;DHT22;38624;53.242;6.974;2023-09-18T09:33:02;18.50;99.90
52731;DHT22;38624;53.242;6.974;2023-09-18T09:35:35;18.50;99.90
52731;DHT22;38624;53.242;6.974;2023-09-18T09:38:08;18.50;99.90
52731;DHT22;38624;53.242;6.974;2023-09-18T09:40:38;18.50;99.90
52731;DHT22;38624;53.242;6.974;2023-09-18T09:43:12;18.50;99.90
52731;DHT22;38624;53.242;6.974;2023-09-18T09:45:40;18.60;99.90
52731;DHT22;38624;53.242;6.974;2023-09-18T09:48:07;18.60;99.90
52731;DHT22;38624;53.242;6.974;2023-09-18T09:50:34;18.60;99.90
52731;DHT22;38624;53.242;6.974;2023-09-18T09:53:10;18.60;99.90
52731;DHT22;38624;53.242;6.974;2023-09-18T09:55:35;18.70;99.90
52731;DHT22;38624;53.242;6.974;2023-09-18T09:58:03;18.70;99.90
52731;DHT22;38624;53.242;6.974;2023-09-18T10:00:43;18.70;99.90
52731;DHT22;38624;53.242;6.974;2023-09-18T10:03:18;18.90;99.90
52731;DHT22;38624;53.242;6.974;2023-09-18T10:05:46;19.10;99.90
52731;DHT22;38624;53.242;6.974;2023-09-18T10:08:19;18.80;99.90
52731;DHT22;38624;53.242;6.974;2023-09-18T10:10:54;19.40;99.90
52731;DHT22;38624;53.242;6.974;2023-09-18T10:13:27;19.40;99.90
52731;DHT22;38624;53.242;6.974;2023-09-18T10:15:56;19.50;99.90
52731;DHT22;38624;53.242;6.974;2023-09-18T10:18:31;19.70;99.90
52731;DHT22;38624;53.242;6.974;2023-09-18T10:21:22;19.90;99.90
52731;DHT22;38624;53.242;6.974;2023-09-18T10:26:26;19.90;99.90
52731;DHT22;38624;53.242;6.974;2023-09-18T10:28:56;19.90;99.90
52731;DHT22;38624;53.242;6.974;2023-09-18T10:31:28;19.90;99.90
52731;DHT22;38624;53.242;6.974;2023-09-18T10:33:57;20.00;99.90
52731;DHT22;38624;53.242;6.974;2023-09-18T10:36:25;20.10;99.90
52731;DHT22;38624;53.242;6.974;2023-09-18T10:38:52;19.80;99.90
52731;DHT22;38624;53.242;6.974;2023-09-18T10:41:21;20.30;99.90
52731;DHT22;38624;53.242;6.974;2023-09-18T10:43:47;20.60;99.90
52731;DHT22;38624;53.242;6.974;2023-09-18T10:46:18;20.60;99.90
52731;DHT22;38624;53.242;6.974;2023-09-18T10:48:47;20.50;99.90
52731;DHT22;38624;53.242;6.974;2023-09-18T10:51:22;20.50;99.90
52731;DHT22;38624;53.242;6.974;2023-09-18T10:53:49;20.70;99.90
52731;DHT22;38624;53.242;6.974;2023-09-18T10:56:16;20.70;99.90
52731;DHT22;38624;53.242;6.974;2023-09-18T10:58:45;21.00;99.90
52731;DHT22;38624;53.242;6.974;2023-09-18T11:01:13;21.20;99.90
52731;DHT22;38624;53.242;6.974;2023-09-18T11:03:40;21.30;99.90
52731;DHT22;38624;53.242;6.974;2023-09-18T11:06:13;21.30;99.90
52731;DHT22;38624;53.242;6.974;2023-09-18T11:08:45;21.20;99.90
52731;DHT22;38624;53.242;6.974;2023-09-18T11:11:13;21.60;99.90
52731;DHT22;38624;53.242;6.974;2023-09-18T11:13:47;21.70;99.90
52731;DHT22;38624;53.242;6.974;2023-09-18T11:18:51;22.30;99.90
52731;DHT22;38624;53.242;6.974;2023-09-18T11:21:30;22.40;99.90
52731;DHT22;38624;53.242;6.974;2023-09-18T11:24:07;22.30;99.90
52731;DHT22;38624;53.242;6.974;2023-09-18T11:26:46;22.20;99.90
52731;DHT22;38624;53.242;6.974;2023-09-18T11:29:15;22.20;99.90
52731;DHT22;38624;53.242;6.974;2023-09-18T11:31:55;22.20;99.90
52731;DHT22;38624;53.242;6.974;2023-09-18T11:34:29;22.30;99.90
52731;DHT22;38624;53.242;6.974;2023-09-18T11:37:02;22.20;99.90
52731;DHT22;38624;53.242;6.974;2023-09-18T11:39:44;21.80;99.90
52731;DHT22;38624;53.242;6.974;2023-09-18T11:44:37;21.30;99.90
52731;DHT22;38624;53.242;6.974;2023-09-18T11:47:11;21.30;99.90
52731;DHT22;38624;53.242;6.974;2023-09-18T11:49:58;21.60;99.90
52731;DHT22;38624;53.242;6.974;2023-09-18T11:52:28;21.90;99.90
52731;DHT22;38624;53.242;6.974;2023-09-18T11:54:59;21.80;99.90
52731;DHT22;38624;53.242;6.974;2023-09-18T11:57:25;22.00;99.90
52731;DHT22;38624;53.242;6.974;2023-09-18T11:59:51;22.00;99.90
52731;DHT22;38624;53.242;6.974;2023-09-18T12:02:27;22.00;99.90
52731;DHT22;38624;53.242;6.974;2023-09-18T12:04:56;21.90;99.90
52731;DHT22;38624;53.242;6.974;2023-09-18T12:07:23;22.20;99.90
52731;DHT22;38624;53.242;6.974;2023-09-18T12:09:50;22.50;99.90
52731;DHT22;38624;53.242;6.974;2023-09-18T12:12:16;22.50;99.90
52731;DHT22;38624;53.242;6.974;2023-09-18T12:14:43;22.50;99.90
52731;DHT22;38624;53.242;6.974;2023-09-18T12:17:14;22.30;99.90
52731;DHT22;38624;53.242;6.974;2023-09-18T12:19:51;22.20;99.90
52731;DHT22;38624;53.242;6.974;2023-09-18T12:22:50;22.20;99.90
52731;DHT22;38624;53.242;6.974;2023-09-18T12:25:21;21.80;99.90
52731;DHT22;38624;53.242;6.974;2023-09-18T12:27:56;22.20;99.90
52731;DHT22;38624;53.242;6.974;2023-09-18T12:30:28;22.00;99.90
52731;DHT22;38624;53.242;6.974;2023-09-18T12:33:02;22.00;99.90
52731;DHT22;38624;53.242;6.974;2023-09-18T12:35:33;21.80;99.90
52731;DHT22;38624;53.242;6.974;2023-09-18T12:38:16;21.70;99.90
52731;DHT22;38624;53.242;6.974;2023-09-18T12:40:42;21.50;99.90
52731;DHT22;38624;53.242;6.974;2023-09-18T12:43:10;21.30;99.90
52731;DHT22;38624;53.242;6.974;2023-09-18T12:45:37;21.40;99.90
52731;DHT22;38624;53.242;6.974;2023-09-18T12:48:03;21.20;99.90
52731;DHT22;38624;53.242;6.974;2023-09-18T12:50:31;21.60;99.90
52731;DHT22;38624;53.242;6.974;2023-09-18T12:53:14;21.90;99.90
52731;DHT22;38624;53.242;6.974;2023-09-18T12:55:41;22.30;99.90
52731;DHT22;38624;53.242;6.974;2023-09-18T12:58:11;22.50;99.90
52731;DHT22;38624;53.242;6.974;2023-09-18T13:00:45;22.60;99.90
52731;DHT22;38624;53.242;6.974;2023-09-18T13:03:15;22.80;99.90
52731;DHT22;38624;53.242;6.974;2023-09-18T13:05:41;21.70;99.90
52731;DHT22;38624;53.242;6.974;2023-09-18T13:08:07;22.60;99.90
52731;DHT22;38624;53.242;6.974;2023-09-18T13:10:45;22.60;99.90
52731;DHT22;38624;53.242;6.974;2023-09-18T13:13:57;22.50;99.90
52731;DHT22;38624;53.242;6.974;2023-09-18T13:16:23;22.50;99.90
52731;DHT22;38624;53.242;6.974;2023-09-18T13:18:49;22.50;99.90
52731;DHT22;38624;53.242;6.974;2023-09-18T13:21:15;22.60;99.90
52731;DHT22;38624;53.242;6.974;2023-09-18T13:27:21;22.60;99.90
52731;DHT22;38624;53.242;6.974;2023-09-18T13:29:49;22.70;99.90
52731;DHT22;38624;53.242;6.974;2023-09-18T13:32:17;22.60;99.90
52731;DHT22;38624;53.242;6.974;2023-09-18T13:34:43;22.50;99.90
52731;DHT22;38624;53.242;6.974;2023-09-18T13:37:10;22.60;99.90
52731;DHT22;38624;53.242;6.974;2023-09-18T13:39:39;22.60;99.90
52731;DHT22;38624;53.242;6.974;2023-09-18T13:42:05;22.70;99.90
52731;DHT22;38624;53.242;6.974;2023-09-18T13:44:34;22.70;99.90
52731;DHT22;38624;53.242;6.974;2023-09-18T13:47:02;22.80;99.90
52731;DHT22;38624;53.242;6.974;2023-09-18T13:49:31;22.80;99.90
52731;DHT22;38624;53.242;6.974;2023-09-18T13:51:59;23.00;99.90
52731;DHT22;38624;53.242;6.974;2023-09-18T13:54:27;22.60;99.90
52731;DHT22;38624;53.242;6.974;2023-09-18T13:56:56;22.70;99.90
52731;DHT22;38624;53.242;6.974;2023-09-18T13:59:22;22.80;99.90
52731;DHT22;38624;53.242;6.974;2023-09-18T14:01:48;22.80;99.90
52731;DHT22;38624;53.242;6.974;2023-09-18T14:04:17;23.00;99.90
52731;DHT22;38624;53.242;6.974;2023-09-18T14:06:43;23.00;99.90
52731;DHT22;38624;53.242;6.974;2023-09-18T14:09:09;23.00;99.90
52731;DHT22;38624;53.242;6.974;2023-09-18T14:11:37;23.10;99.90
52731;DHT22;38624;53.242;6.974;2023-09-18T14:14:03;22.90;99.90
52731;DHT22;38624;53.242;6.974;2023-09-18T14:16:29;22.70;99.90
52731;DHT22;38624;53.242;6.974;2023-09-18T14:19:06;22.60;99.90
52731;DHT22;38624;53.242;6.974;2023-09-18T14:21:35;22.80;99.90
52731;DHT22;38624;53.242;6.974;2023-09-18T14:24:02;22.90;99.90
52731;DHT22;38624;53.242;6.974;2023-09-18T14:26:28;22.80;99.90
52731;DHT22;38624;53.242;6.974;2023-09-18T14:28:57;22.60;99.90
52731;DHT22;38624;53.242;6.974;2023-09-18T14:31:22;22.50;99.90
52731;DHT22;38624;53.242;6.974;2023-09-18T14:33:51;22.50;99.90
52731;DHT22;38624;53.242;6.974;2023-09-18T14:36:16;22.50;99.90
52731;DHT22;38624;53.242;6.974;2023-09-18T14:38:43;22.40;99.90
52731;DHT22;38624;53.242;6.974;2023-09-18T14:41:08;22.50;99.90
52731;DHT22;38624;53.242;6.974;2023-09-18T14:43:38;22.70;99.90
52731;DHT22;38624;53.242;6.974;2023-09-18T14:46:04;22.60;99.90
52731;DHT22;38624;53.242;6.974;2023-09-18T14:48:29;22.50;99.90
52731;DHT22;38624;53.242;6.974;2023-09-18T14:50:57;22.50;99.90
52731;DHT22;38624;53.242;6.974;2023-09-18T14:53:22;22.50;99.90
52731;DHT22;38624;53.242;6.974;2023-09-18T14:55:48;22.60;99.90
52731;DHT22;38624;53.242;6.974;2023-09-18T14:58:14;22.60;99.90
52731;DHT22;38624;53.242;6.974;2023-09-18T15:00:40;22.40;99.90
52731;DHT22;38624;53.242;6.974;2023-09-18T15:03:05;22.20;99.90
52731;DHT22;38624;53.242;6.974;2023-09-18T15:05:31;22.30;99.90
52731;DHT22;38624;53.242;6.974;2023-09-18T15:07:57;22.50;99.90
52731;DHT22;38624;53.242;6.974;2023-09-18T15:10:22;22.60;99.90
52731;DHT22;38624;53.242;6.974;2023-09-18T15:12:48;22.60;99.90
52731;DHT22;38624;53.242;6.974;2023-09-18T15:15:14;22.60;99.90
52731;DHT22;38624;53.242;6.974;2023-09-18T15:17:39;22.50;99.90
52731;DHT22;38624;53.242;6.974;2023-09-18T15:20:06;22.40;99.90
52731;DHT22;38624;53.242;6.974;2023-09-18T15:22:32;22.40;99.90
52731;DHT22;38624;53.242;6.974;2023-09-18T15:24:57;22.30;99.90
52731;DHT22;38624;53.242;6.974;2023-09-18T15:27:23;22.50;99.90
52731;DHT22;38624;53.242;6.974;2023-09-18T15:29:49;23.50;99.90
52731;DHT22;38624;53.242;6.974;2023-09-18T15:32:15;24.50;99.90
52731;DHT22;38624;53.242;6.974;2023-09-18T15:34:41;25.40;99.90
52731;DHT22;38624;53.242;6.974;2023-09-18T15:37:07;26.50;99.90
52731;DHT22;38624;53.242;6.974;2023-09-18T15:39:32;26.60;99.90
52731;DHT22;38624;53.242;6.974;2023-09-18T15:42:00;27.10;99.90
52731;DHT22;38624;53.242;6.974;2023-09-18T15:44:26;27.20;99.90
52731;DHT22;38624;53.242;6.974;2023-09-18T15:46:52;27.10;99.90
52731;DHT22;38624;53.242;6.974;2023-09-18T15:49:18;27.30;99.90
52731;DHT22;38624;53.242;6.974;2023-09-18T15:51:44;26.80;99.90
52731;DHT22;38624;53.242;6.974;2023-09-18T15:54:09;25.90;99.90
52731;DHT22;38624;53.242;6.974;2023-09-18T15:56:35;25.00;99.90
52731;DHT22;38624;53.242;6.974;2023-09-18T15:59:02;24.60;99.90
52731;DHT22;38624;53.242;6.974;2023-09-18T16:01:29;24.20;99.90
52731;DHT22;38624;53.242;6.974;2023-09-18T16:03:55;23.70;99.90
52731;DHT22;38624;53.242;6.974;2023-09-18T16:06:22;23.30;99.90
52731;DHT22;38624;53.242;6.974;2023-09-18T16:08:48;23.00;99.90
52731;DHT22;38624;53.242;6.974;2023-09-18T16:11:14;22.70;99.90